sensor_id;sensor_type;location;lat;lon;timestamp;temperature;humidity
18225;DHT22;9237;48.590;8.854;2024-03-07T00:01:51;5.50;99.90
18225;DHT22;9237;48.590;8.854;2024-03-07T00:04:18;5.50;99.90
18225;DHT22;9237;48.590;8.854;2024-03-07T00:06:44;5.50;99.90
18225;DHT22;9237;48.590;8.854;2024-03-07T00:09:11;6.20;99.90
18225;DHT22;9237;48.590;8.854;2024-03-07T00:11:38;5.50;99.90
18225;DHT22;9237;48.590;8.854;2024-03-07T00:14:05;5.40;99.90
18225;DHT22;9237;48.590;8.854;2024-03-07T00:16:32;5.40;99.90
18225;DHT22;9237;48.590;8.854;2024-03-07T00:19:00;5.40;99.90
18225;DHT22;9237;48.590;8.854;2024-03-07T00:21:27;5.40;99.90
18225;DHT22;9237;48.590;8.854;2024-03-07T00:23:54;5.40;99.90
18225;DHT22;9237;48.590;8.854;2024-03-07T00:26:21;5.40;99.90
18225;DHT22;9237;48.590;8.854;2024-03-07T00:28:47;5.40;99.90
18225;DHT22;9237;48.590;8.854;2024-03-07T00:31:14;5.40;99.90
18225;DHT22;9237;48.590;8.854;2024-03-07T00:33:42;5.40;99.90
18225;DHT22;9237;48.590;8.854;2024-03-07T00:36:10;5.40;99.90
18225;DHT22;9237;48.590;8.854;2024-03-07T00:38:37;5.40;99.90
18225;DHT22;9237;48.590;8.854;2024-03-07T00:41:04;5.40;99.90
18225;DHT22;9237;48.590;8.854;2024-03-07T00:43:31;5.40;99.90
18225;DHT22;9237;48.590;8.854;2024-03-07T00:45:58;5.40;99.90
18225;DHT22;9237;48.590;8.854;2024-03-07T00:48:24;5.40;99.90
18225;DHT22;9237;48.590;8.854;2024-03-07T00:50:51;5.40;99.90
18225;DHT22;9237;48.590;8.854;2024-03-07T00:53:19;5.40;99.90
18225;DHT22;9237;48.590;8.854;2024-03-07T00:55:46;5.40;99.90
18225;DHT22;9237;48.590;8.854;2024-03-07T00:58:13;5.40;99.90
18225;DHT22;9237;48.590;8.854;2024-03-07T01:00:39;5.40;99.90
18225;DHT22;9237;48.590;8.854;2024-03-07T01:03:08;5.40;99.90
18225;DHT22;9237;48.590;8.854;2024-03-07T01:05:36;5.40;99.90
18225;DHT22;9237;48.590;8.854;2024-03-07T01:08:05;5.40;99.90
18225;DHT22;9237;48.590;8.854;2024-03-07T01:10:33;5.40;99.90
18225;DHT22;9237;48.590;8.854;2024-03-07T01:13:00;5.40;99.90
18225;DHT22;9237;48.590;8.854;2024-03-07T01:15:27;5.40;99.90
18225;DHT22;9237;48.590;8.854;2024-03-07T01:17:54;5.30;99.90
18225;DHT22;9237;48.590;8.854;2024-03-07T01:20:21;5.30;99.90
18225;DHT22;9237;48.590;8.854;2024-03-07T01:22:48;5.30;99.90
18225;DHT22;9237;48.590;8.854;2024-03-07T01:25:17;5.30;99.90
18225;DHT22;9237;48.590;8.854;2024-03-07T01:27:45;5.20;99.90
18225;DHT22;9237;48.590;8.854;2024-03-07T01:30:13;5.30;99.90
18225;DHT22;9237;48.590;8.854;2024-03-07T01:32:39;5.20;99.90
18225;DHT22;9237;48.590;8.854;2024-03-07T01:35:06;5.20;99.90
18225;DHT22;9237;48.590;8.854;2024-03-07T01:37:34;5.20;99.90
18225;DHT22;9237;48.590;8.854;2024-03-07T01:40:01;5.20;99.90
18225;DHT22;9237;48.590;8.854;2024-03-07T01:42:28;5.20;99.90
18225;DHT22;9237;48.590;8.854;2024-03-07T01:44:57;5.10;99.90
18225;DHT22;9237;48.590;8.854;2024-03-07T01:47:24;5.10;99.90
18225;DHT22;9237;48.590;8.854;2024-03-07T01:49:51;5.10;99.90
18225;DHT22;9237;48.590;8.854;2024-03-07T01:52:18;5.00;99.90
18225;DHT22;9237;48.590;8.854;2024-03-07T01:54:46;5.00;99.90
18225;DHT22;9237;48.590;8.854;2024-03-07T01:57:13;4.90;99.90
18225;DHT22;9237;48.590;8.854;2024-03-07T01:59:41;4.90;99.90
18225;DHT22;9237;48.590;8.854;2024-03-07T02:02:11;4.90;99.90
18225;DHT22;9237;48.590;8.854;2024-03-07T02:04:37;4.80;99.90
18225;DHT22;9237;48.590;8.854;2024-03-07T02:07:04;4.80;99.90
18225;DHT22;9237;48.590;8.854;2024-03-07T02:09:31;4.70;99.90
18225;DHT22;9237;48.590;8.854;2024-03-07T02:11:58;4.70;99.90
18225;DHT22;9237;48.590;8.854;2024-03-07T02:14:25;4.70;99.90
18225;DHT22;9237;48.590;8.854;2024-03-07T02:16:52;4.60;99.90
18225;DHT22;9237;48.590;8.854;2024-03-07T02:19:20;4.60;99.90
18225;DHT22;9237;48.590;8.854;2024-03-07T02:21:48;4.60;99.90
18225;DHT22;9237;48.590;8.854;2024-03-07T02:24:15;4.50;99.90
18225;DHT22;9237;48.590;8.854;2024-03-07T02:26:42;4.50;99.90
18225;DHT22;9237;48.590;8.854;2024-03-07T02:29:09;4.50;99.90
18225;DHT22;9237;48.590;8.854;2024-03-07T02:31:36;4.50;99.90
18225;DHT22;9237;48.590;8.854;2024-03-07T02:34:04;4.50;99.90
18225;DHT22;9237;48.590;8.854;2024-03-07T02:36:33;4.50;99.90
18225;DHT22;9237;48.590;8.854;2024-03-07T02:39:01;4.60;99.90
18225;DHT22;9237;48.590;8.854;2024-03-07T02:41:28;4.50;99.90
18225;DHT22;9237;48.590;8.854;2024-03-07T02:43:55;4.50;99.90
18225;DHT22;9237;48.590;8.854;2024-03-07T02:46:22;4.50;99.90
18225;DHT22;9237;48.590;8.854;2024-03-07T02:48:48;4.60;99.90
18225;DHT22;9237;48.590;8.854;2024-03-07T02:51:15;4.30;99.90
18225;DHT22;9237;48.590;8.854;2024-03-07T02:53:42;4.20;99.90
18225;DHT22;9237;48.590;8.854;2024-03-07T02:56:10;4.20;99.90
18225;DHT22;9237;48.590;8.854;2024-03-07T02:58:37;4.00;99.90
18225;DHT22;9237;48.590;8.854;2024-03-07T03:01:04;4.00;99.90
18225;DHT22;9237;48.590;8.854;2024-03-07T03:03:31;3.90;99.90
18225;DHT22;9237;48.590;8.854;2024-03-07T03:05:58;3.80;99.90
18225;DHT22;9237;48.590;8.854;2024-03-07T03:08:26;3.80;99.90
18225;DHT22;9237;48.590;8.854;2024-03-07T03:10:54;3.70;99.90
18225;DHT22;9237;48.590;8.854;2024-03-07T03:13:23;3.60;99.90
18225;DHT22;9237;48.590;8.854;2024-03-07T03:15:53;3.60;99.90
18225;DHT22;9237;48.590;8.854;2024-03-07T03:18:21;3.40;99.90
18225;DHT22;9237;48.590;8.854;2024-03-07T03:20:47;3.40;99.90
18225;DHT22;9237;48.590;8.854;2024-03-07T03:23:14;3.40;99.90
18225;DHT22;9237;48.590;8.854;2024-03-07T03:25:41;3.30;99.90
18225;DHT22;9237;48.590;8.854;2024-03-07T03:28:09;3.20;99.90
18225;DHT22;9237;48.590;8.854;2024-03-07T03:30:38;3.10;99.90
18225;DHT22;9237;48.590;8.854;2024-03-07T03:33:05;3.00;99.90
18225;DHT22;9237;48.590;8.854;2024-03-07T03:35:32;3.00;99.90
18225;DHT22;9237;48.590;8.854;2024-03-07T03:37:59;3.10;99.90
18225;DHT22;9237;48.590;8.854;2024-03-07T03:40:26;3.20;99.90
18225;DHT22;9237;48.590;8.854;2024-03-07T03:42:53;3.30;99.90
18225;DHT22;9237;48.590;8.854;2024-03-07T03:45:20;3.20;99.90
18225;DHT22;9237;48.590;8.854;2024-03-07T03:47:48;3.40;99.90
18225;DHT22;9237;48.590;8.854;2024-03-07T03:50:15;3.40;99.90
18225;DHT22;9237;48.590;8.854;2024-03-07T03:52:43;3.50;99.90
18225;DHT22;9237;48.590;8.854;2024-03-07T03:55:10;3.50;99.90
18225;DHT22;9237;48.590;8.854;2024-03-07T03:57:40;3.60;99.90
18225;DHT22;9237;48.590;8.854;2024-03-07T04:00:09;3.60;99.90
18225;DHT22;9237;48.590;8.854;2024-03-07T04:02:38;3.60;99.90
18225;DHT22;9237;48.590;8.854;2024-03-07T04:05:07;3.70;99.90
18225;DHT22;9237;48.590;8.854;2024-03-07T04:07:35;3.70;99.90
18225;DHT22;9237;48.590;8.854;2024-03-07T04:10:02;3.70;99.90
18225;DHT22;9237;48.590;8.854;2024-03-07T04:12:29;3.60;99.90
18225;DHT22;9237;48.590;8.854;2024-03-07T04:14:56;3.60;99.90
18225;DHT22;9237;48.590;8.854;2024-03-07T04:17:23;3.60;99.90
18225;DHT22;9237;48.590;8.854;2024-03-07T04:19:50;3.40;99.90
18225;DHT22;9237;48.590;8.854;2024-03-07T04:22:18;3.40;99.90
18225;DHT22;9237;48.590;8.854;2024-03-07T04:24:46;3.40;99.90
18225;DHT22;9237;48.590;8.854;2024-03-07T04:27:13;3.30;99.90
18225;DHT22;9237;48.590;8.854;2024-03-07T04:29:41;3.20;99.90
18225;DHT22;9237;48.590;8.854;2024-03-07T04:32:08;3.20;99.90
18225;DHT22;9237;48.590;8.854;2024-03-07T04:34:35;3.20;99.90
18225;DHT22;9237;48.590;8.854;2024-03-07T04:37:02;3.10;99.90
18225;DHT22;9237;48.590;8.854;2024-03-07T04:39:31;3.10;99.90
18225;DHT22;9237;48.590;8.854;2024-03-07T04:41:59;3.10;99.90
18225;DHT22;9237;48.590;8.854;2024-03-07T04:44:27;3.10;99.90
18225;DHT22;9237;48.590;8.854;2024-03-07T04:46:54;3.00;99.90
18225;DHT22;9237;48.590;8.854;2024-03-07T04:49:22;2.90;99.90
18225;DHT22;9237;48.590;8.854;2024-03-07T04:51:49;2.20;99.90
18225;DHT22;9237;48.590;8.854;2024-03-07T04:54:17;2.80;99.90
18225;DHT22;9237;48.590;8.854;2024-03-07T04:56:45;2.80;99.90
18225;DHT22;9237;48.590;8.854;2024-03-07T04:59:12;2.80;99.90
18225;DHT22;9237;48.590;8.854;2024-03-07T05:01:39;2.80;99.90
18225;DHT22;9237;48.590;8.854;2024-03-07T05:04:06;2.70;99.90
18225;DHT22;9237;48.590;8.854;2024-03-07T05:06:33;2.70;99.90
18225;DHT22;9237;48.590;8.854;2024-03-07T05:09:00;2.70;99.90
18225;DHT22;9237;48.590;8.854;2024-03-07T05:11:28;2.60;99.90
18225;DHT22;9237;48.590;8.854;2024-03-07T05:13:58;2.50;99.90
18225;DHT22;9237;48.590;8.854;2024-03-07T05:16:25;2.50;99.90
18225;DHT22;9237;48.590;8.854;2024-03-07T05:18:52;2.40;99.90
18225;DHT22;9237;48.590;8.854;2024-03-07T05:21:19;2.30;99.90
18225;DHT22;9237;48.590;8.854;2024-03-07T05:24:04;2.20;99.90
18225;DHT22;9237;48.590;8.854;2024-03-07T05:26:32;2.20;99.90
18225;DHT22;9237;48.590;8.854;2024-03-07T05:29:03;2.10;99.90
18225;DHT22;9237;48.590;8.854;2024-03-07T05:31:33;2.00;99.90
18225;DHT22;9237;48.590;8.854;2024-03-07T05:34:01;2.00;99.90
18225;DHT22;9237;48.590;8.854;2024-03-07T05:36:29;2.00;99.90
18225;DHT22;9237;48.590;8.854;2024-03-07T05:38:57;2.00;99.90
18225;DHT22;9237;48.590;8.854;2024-03-07T05:41:24;1.90;99.90
18225;DHT22;9237;48.590;8.854;2024-03-07T05:43:55;1.90;99.90
18225;DHT22;9237;48.590;8.854;2024-03-07T05:46:23;1.80;99.90
18225;DHT22;9237;48.590;8.854;2024-03-07T05:48:50;1.80;99.90
18225;DHT22;9237;48.590;8.854;2024-03-07T05:51:21;1.80;99.90
18225;DHT22;9237;48.590;8.854;2024-03-07T05:53:48;1.90;99.90
18225;DHT22;9237;48.590;8.854;2024-03-07T05:56:15;1.80;99.90
18225;DHT22;9237;48.590;8.854;2024-03-07T05:58:41;1.80;99.90
18225;DHT22;9237;48.590;8.854;2024-03-07T06:01:08;1.80;99.90
18225;DHT22;9237;48.590;8.854;2024-03-07T06:03:39;1.70;99.90
18225;DHT22;9237;48.590;8.854;2024-03-07T06:06:06;1.60;99.90
18225;DHT22;9237;48.590;8.854;2024-03-07T06:08:37;1.60;99.90
18225;DHT22;9237;48.590;8.854;2024-03-07T06:11:04;1.60;99.90
18225;DHT22;9237;48.590;8.854;2024-03-07T06:13:31;1.50;99.90
18225;DHT22;9237;48.590;8.854;2024-03-07T06:15:58;1.50;99.90
18225;DHT22;9237;48.590;8.854;2024-03-07T06:18:27;1.50;99.90
18225;DHT22;9237;48.590;8.854;2024-03-07T06:20:58;1.50;99.90
18225;DHT22;9237;48.590;8.854;2024-03-07T06:23:25;1.50;99.90
18225;DHT22;9237;48.590;8.854;2024-03-07T06:25:54;1.50;99.90
18225;DHT22;9237;48.590;8.854;2024-03-07T06:28:21;1.50;99.90
18225;DHT22;9237;48.590;8.854;2024-03-07T06:30:48;1.50;99.90
18225;DHT22;9237;48.590;8.854;2024-03-07T06:33:16;1.50;99.90
18225;DHT22;9237;48.590;8.854;2024-03-07T06:35:43;1.50;99.90
18225;DHT22;9237;48.590;8.854;2024-03-07T06:38:11;1.50;99.90
18225;DHT22;9237;48.590;8.854;2024-03-07T06:40:38;1.60;99.90
18225;DHT22;9237;48.590;8.854;2024-03-07T06:43:06;1.80;99.90
18225;DHT22;9237;48.590;8.854;2024-03-07T06:45:33;1.90;99.90
18225;DHT22;9237;48.590;8.854;2024-03-07T06:48:01;1.90;99.90
18225;DHT22;9237;48.590;8.854;2024-03-07T06:50:28;2.00;99.90
18225;DHT22;9237;48.590;8.854;2024-03-07T06:52:55;2.10;99.90
18225;DHT22;9237;48.590;8.854;2024-03-07T06:55:23;2.10;99.90
18225;DHT22;9237;48.590;8.854;2024-03-07T06:57:50;2.20;99.90
18225;DHT22;9237;48.590;8.854;2024-03-07T07:00:17;2.40;99.90
18225;DHT22;9237;48.590;8.854;2024-03-07T07:02:45;2.60;99.90
18225;DHT22;9237;48.590;8.854;2024-03-07T07:05:13;2.60;99.90
18225;DHT22;9237;48.590;8.854;2024-03-07T07:07:41;2.90;99.90
18225;DHT22;9237;48.590;8.854;2024-03-07T07:10:09;3.00;99.90
18225;DHT22;9237;48.590;8.854;2024-03-07T07:12:43;3.10;99.90
18225;DHT22;9237;48.590;8.854;2024-03-07T07:15:10;3.40;99.90
18225;DHT22;9237;48.590;8.854;2024-03-07T07:17:38;3.60;99.90
18225;DHT22;9237;48.590;8.854;2024-03-07T07:20:06;3.70;99.90
18225;DHT22;9237;48.590;8.854;2024-03-07T07:22:36;3.90;99.90
18225;DHT22;9237;48.590;8.854;2024-03-07T07:25:03;4.00;99.90
18225;DHT22;9237;48.590;8.854;2024-03-07T07:27:31;4.00;99.90
18225;DHT22;9237;48.590;8.854;2024-03-07T07:29:59;4.00;99.90
18225;DHT22;9237;48.590;8.854;2024-03-07T07:32:26;3.90;99.90
18225;DHT22;9237;48.590;8.854;2024-03-07T07:34:53;3.80;99.90
18225;DHT22;9237;48.590;8.854;2024-03-07T07:37:20;3.80;99.90
18225;DHT22;9237;48.590;8.854;2024-03-07T07:39:48;3.80;99.90
18225;DHT22;9237;48.590;8.854;2024-03-07T07:42:15;3.80;99.90
18225;DHT22;9237;48.590;8.854;2024-03-07T07:44:42;3.70;99.90
18225;DHT22;9237;48.590;8.854;2024-03-07T07:47:11;3.80;99.90
18225;DHT22;9237;48.590;8.854;2024-03-07T07:49:38;3.70;99.90
18225;DHT22;9237;48.590;8.854;2024-03-07T07:52:05;3.60;99.90
18225;DHT22;9237;48.590;8.854;2024-03-07T07:54:34;3.70;99.90
18225;DHT22;9237;48.590;8.854;2024-03-07T07:57:01;3.70;99.90
18225;DHT22;9237;48.590;8.854;2024-03-07T07:59:27;3.80;99.90
18225;DHT22;9237;48.590;8.854;2024-03-07T08:01:55;3.90;99.90
18225;DHT22;9237;48.590;8.854;2024-03-07T08:04:23;3.40;99.90
18225;DHT22;9237;48.590;8.854;2024-03-07T08:06:50;3.40;99.90
18225;DHT22;9237;48.590;8.854;2024-03-07T08:09:17;3.60;99.90
18225;DHT22;9237;48.590;8.854;2024-03-07T08:11:44;3.70;99.90
18225;DHT22;9237;48.590;8.854;2024-03-07T08:14:11;3.60;99.90
18225;DHT22;9237;48.590;8.854;2024-03-07T08:16:38;3.50;99.90
18225;DHT22;9237;48.590;8.854;2024-03-07T08:19:05;3.80;99.90
18225;DHT22;9237;48.590;8.854;2024-03-07T08:21:33;4.10;99.90
18225;DHT22;9237;48.590;8.854;2024-03-07T08:24:00;4.40;99.90
18225;DHT22;9237;48.590;8.854;2024-03-07T08:26:29;4.60;99.90
18225;DHT22;9237;48.590;8.854;2024-03-07T08:28:57;4.70;99.90
18225;DHT22;9237;48.590;8.854;2024-03-07T08:31:24;4.70;99.90
18225;DHT22;9237;48.590;8.854;2024-03-07T08:33:51;4.50;99.90
18225;DHT22;9237;48.590;8.854;2024-03-07T08:36:19;4.40;99.90
18225;DHT22;9237;48.590;8.854;2024-03-07T08:38:49;4.20;99.90
18225;DHT22;9237;48.590;8.854;2024-03-07T08:41:17;4.00;99.90
18225;DHT22;9237;48.590;8.854;2024-03-07T08:43:44;3.80;99.90
18225;DHT22;9237;48.590;8.854;2024-03-07T08:46:11;3.90;99.90
18225;DHT22;9237;48.590;8.854;2024-03-07T08:48:38;4.00;99.90
18225;DHT22;9237;48.590;8.854;2024-03-07T08:51:05;4.10;99.90
18225;DHT22;9237;48.590;8.854;2024-03-07T08:53:32;4.10;99.90
18225;DHT22;9237;48.590;8.854;2024-03-07T08:56:02;4.10;99.90
18225;DHT22;9237;48.590;8.854;2024-03-07T08:58:29;4.30;99.90
18225;DHT22;9237;48.590;8.854;2024-03-07T09:00:56;4.40;99.90
18225;DHT22;9237;48.590;8.854;2024-03-07T09:03:24;4.50;99.90
18225;DHT22;9237;48.590;8.854;2024-03-07T09:05:51;4.60;99.90
18225;DHT22;9237;48.590;8.854;2024-03-07T09:08:18;4.50;99.90
18225;DHT22;9237;48.590;8.854;2024-03-07T09:10:44;4.50;99.90
18225;DHT22;9237;48.590;8.854;2024-03-07T09:13:13;4.50;99.90
18225;DHT22;9237;48.590;8.854;2024-03-07T09:15:40;4.40;99.90
18225;DHT22;9237;48.590;8.854;2024-03-07T09:18:07;4.30;99.90
18225;DHT22;9237;48.590;8.854;2024-03-07T09:20:34;4.10;99.90
18225;DHT22;9237;48.590;8.854;2024-03-07T09:23:02;4.20;99.90
18225;DHT22;9237;48.590;8.854;2024-03-07T09:25:29;3.90;99.90
18225;DHT22;9237;48.590;8.854;2024-03-07T09:27:58;3.90;99.90
18225;DHT22;9237;48.590;8.854;2024-03-07T09:30:27;3.90;99.90
18225;DHT22;9237;48.590;8.854;2024-03-07T09:32:53;4.00;99.90
18225;DHT22;9237;48.590;8.854;2024-03-07T09:35:21;4.10;99.90
18225;DHT22;9237;48.590;8.854;2024-03-07T09:37:48;3.90;99.90
18225;DHT22;9237;48.590;8.854;2024-03-07T09:40:15;4.00;99.90
18225;DHT22;9237;48.590;8.854;2024-03-07T09:42:43;4.00;99.90
18225;DHT22;9237;48.590;8.854;2024-03-07T09:45:14;4.20;99.90
18225;DHT22;9237;48.590;8.854;2024-03-07T09:47:45;4.40;99.90
18225;DHT22;9237;48.590;8.854;2024-03-07T09:50:13;4.30;99.90
18225;DHT22;9237;48.590;8.854;2024-03-07T09:52:41;4.50;99.90
18225;DHT22;9237;48.590;8.854;2024-03-07T09:55:08;4.60;99.90
18225;DHT22;9237;48.590;8.854;2024-03-07T09:57:36;4.70;99.90
18225;DHT22;9237;48.590;8.854;2024-03-07T10:00:05;4.70;99.90
18225;DHT22;9237;48.590;8.854;2024-03-07T10:02:35;4.50;99.90
18225;DHT22;9237;48.590;8.854;2024-03-07T10:05:05;4.50;99.90
18225;DHT22;9237;48.590;8.854;2024-03-07T10:07:34;4.60;99.90
18225;DHT22;9237;48.590;8.854;2024-03-07T10:10:02;4.70;99.90
18225;DHT22;9237;48.590;8.854;2024-03-07T10:12:35;4.80;99.90
18225;DHT22;9237;48.590;8.854;2024-03-07T10:15:04;4.90;99.90
18225;DHT22;9237;48.590;8.854;2024-03-07T10:17:31;5.10;99.90
18225;DHT22;9237;48.590;8.854;2024-03-07T10:19:58;5.20;99.90
18225;DHT22;9237;48.590;8.854;2024-03-07T10:22:27;5.40;99.90
18225;DHT22;9237;48.590;8.854;2024-03-07T10:24:56;5.50;99.90
18225;DHT22;9237;48.590;8.854;2024-03-07T10:27:23;5.50;99.90
18225;DHT22;9237;48.590;8.854;2024-03-07T10:29:52;5.60;99.90
18225;DHT22;9237;48.590;8.854;2024-03-07T10:32:19;5.70;99.90
18225;DHT22;9237;48.590;8.854;2024-03-07T10:34:46;5.80;99.90
18225;DHT22;9237;48.590;8.854;2024-03-07T10:37:13;5.80;99.90
18225;DHT22;9237;48.590;8.854;2024-03-07T10:39:45;5.70;99.90
18225;DHT22;9237;48.590;8.854;2024-03-07T10:42:14;5.60;99.90
18225;DHT22;9237;48.590;8.854;2024-03-07T10:44:43;5.60;99.90
18225;DHT22;9237;48.590;8.854;2024-03-07T10:47:15;5.70;99.90
18225;DHT22;9237;48.590;8.854;2024-03-07T10:49:53;5.90;99.90
18225;DHT22;9237;48.590;8.854;2024-03-07T10:52:28;6.00;99.90
18225;DHT22;9237;48.590;8.854;2024-03-07T10:55:04;6.10;99.90
18225;DHT22;9237;48.590;8.854;2024-03-07T10:57:40;6.10;99.90
18225;DHT22;9237;48.590;8.854;2024-03-07T11:00:09;6.10;99.90
18225;DHT22;9237;48.590;8.854;2024-03-07T11:02:55;6.10;99.90
18225;DHT22;9237;48.590;8.854;2024-03-07T11:05:25;6.10;99.90
18225;DHT22;9237;48.590;8.854;2024-03-07T11:07:57;6.10;99.90
18225;DHT22;9237;48.590;8.854;2024-03-07T11:10:26;6.00;99.90
18225;DHT22;9237;48.590;8.854;2024-03-07T11:12:54;5.90;99.90
18225;DHT22;9237;48.590;8.854;2024-03-07T11:15:23;5.80;99.90
18225;DHT22;9237;48.590;8.854;2024-03-07T11:17:52;5.80;99.90
18225;DHT22;9237;48.590;8.854;2024-03-07T11:20:21;5.70;99.90
18225;DHT22;9237;48.590;8.854;2024-03-07T11:22:48;5.70;99.90
18225;DHT22;9237;48.590;8.854;2024-03-07T11:25:18;5.90;99.90
18225;DHT22;9237;48.590;8.854;2024-03-07T11:27:53;5.80;99.90
18225;DHT22;9237;48.590;8.854;2024-03-07T11:30:23;5.70;99.90
18225;DHT22;9237;48.590;8.854;2024-03-07T11:32:51;5.80;99.90
18225;DHT22;9237;48.590;8.854;2024-03-07T11:35:20;5.90;99.90
18225;DHT22;9237;48.590;8.854;2024-03-07T11:37:56;5.70;99.90
18225;DHT22;9237;48.590;8.854;2024-03-07T11:40:47;5.70;99.90
18225;DHT22;9237;48.590;8.854;2024-03-07T11:43:18;5.60;99.90
18225;DHT22;9237;48.590;8.854;2024-03-07T11:45:44;5.60;99.90
18225;DHT22;9237;48.590;8.854;2024-03-07T11:48:18;5.80;99.90
18225;DHT22;9237;48.590;8.854;2024-03-07T11:50:47;5.60;99.90
18225;DHT22;9237;48.590;8.854;2024-03-07T11:53:14;5.60;99.90
18225;DHT22;9237;48.590;8.854;2024-03-07T11:55:41;5.30;99.90
18225;DHT22;9237;48.590;8.854;2024-03-07T11:58:13;5.30;99.90
18225;DHT22;9237;48.590;8.854;2024-03-07T12:00:44;5.40;99.90
18225;DHT22;9237;48.590;8.854;2024-03-07T12:03:12;5.30;99.90
18225;DHT22;9237;48.590;8.854;2024-03-07T12:05:40;5.30;99.90
18225;DHT22;9237;48.590;8.854;2024-03-07T12:08:09;5.40;99.90
18225;DHT22;9237;48.590;8.854;2024-03-07T12:10:37;5.60;99.90
18225;DHT22;9237;48.590;8.854;2024-03-07T12:13:05;5.60;99.90
18225;DHT22;9237;48.590;8.854;2024-03-07T12:15:33;5.70;99.90
18225;DHT22;9237;48.590;8.854;2024-03-07T12:18:05;5.70;99.90
18225;DHT22;9237;48.590;8.854;2024-03-07T12:20:36;5.80;99.90
18225;DHT22;9237;48.590;8.854;2024-03-07T12:23:04;5.80;99.90
18225;DHT22;9237;48.590;8.854;2024-03-07T12:25:34;5.80;99.90
18225;DHT22;9237;48.590;8.854;2024-03-07T12:28:06;5.90;99.90
18225;DHT22;9237;48.590;8.854;2024-03-07T12:30:47;5.80;99.90
18225;DHT22;9237;48.590;8.854;2024-03-07T12:33:17;5.90;99.90
18225;DHT22;9237;48.590;8.854;2024-03-07T12:35:45;5.80;99.90
18225;DHT22;9237;48.590;8.854;2024-03-07T12:38:13;5.70;99.90
18225;DHT22;9237;48.590;8.854;2024-03-07T12:40:42;5.80;99.90
18225;DHT22;9237;48.590;8.854;2024-03-07T12:43:17;5.80;99.90
18225;DHT22;9237;48.590;8.854;2024-03-07T12:45:45;5.70;99.90
18225;DHT22;9237;48.590;8.854;2024-03-07T12:48:11;5.70;99.90
18225;DHT22;9237;48.590;8.854;2024-03-07T12:50:41;6.10;99.90
18225;DHT22;9237;48.590;8.854;2024-03-07T12:53:08;6.00;99.90
18225;DHT22;9237;48.590;8.854;2024-03-07T12:55:38;6.30;99.90
18225;DHT22;9237;48.590;8.854;2024-03-07T12:58:07;6.50;99.90
18225;DHT22;9237;48.590;8.854;2024-03-07T13:00:35;6.60;99.90
18225;DHT22;9237;48.590;8.854;2024-03-07T13:03:02;6.80;99.90
18225;DHT22;9237;48.590;8.854;2024-03-07T13:05:29;7.00;99.90
18225;DHT22;9237;48.590;8.854;2024-03-07T13:07:57;7.20;99.90
18225;DHT22;9237;48.590;8.854;2024-03-07T13:10:24;7.30;99.90
18225;DHT22;9237;48.590;8.854;2024-03-07T13:12:50;7.20;99.90
18225;DHT22;9237;48.590;8.854;2024-03-07T13:15:18;7.10;99.90
18225;DHT22;9237;48.590;8.854;2024-03-07T13:17:47;7.30;99.90
18225;DHT22;9237;48.590;8.854;2024-03-07T13:20:15;7.00;99.90
18225;DHT22;9237;48.590;8.854;2024-03-07T13:22:42;7.10;99.90
18225;DHT22;9237;48.590;8.854;2024-03-07T13:25:16;7.20;99.90
18225;DHT22;9237;48.590;8.854;2024-03-07T13:27:52;7.30;99.90
18225;DHT22;9237;48.590;8.854;2024-03-07T13:30:22;7.10;99.90
18225;DHT22;9237;48.590;8.854;2024-03-07T13:32:53;7.10;99.90
18225;DHT22;9237;48.590;8.854;2024-03-07T13:35:20;7.10;99.90
18225;DHT22;9237;48.590;8.854;2024-03-07T13:37:48;7.10;99.90
18225;DHT22;9237;48.590;8.854;2024-03-07T13:40:17;7.50;99.90
18225;DHT22;9237;48.590;8.854;2024-03-07T13:42:54;8.00;99.90
18225;DHT22;9237;48.590;8.854;2024-03-07T13:45:23;8.70;99.90
18225;DHT22;9237;48.590;8.854;2024-03-07T13:47:52;8.50;99.90
18225;DHT22;9237;48.590;8.854;2024-03-07T13:50:20;8.40;99.90
18225;DHT22;9237;48.590;8.854;2024-03-07T13:52:49;8.30;99.90
18225;DHT22;9237;48.590;8.854;2024-03-07T13:55:49;8.70;99.90
18225;DHT22;9237;48.590;8.854;2024-03-07T13:58:25;9.00;99.90
18225;DHT22;9237;48.590;8.854;2024-03-07T14:01:08;9.10;99.90
18225;DHT22;9237;48.590;8.854;2024-03-07T14:04:01;8.90;99.90
18225;DHT22;9237;48.590;8.854;2024-03-07T14:06:48;8.30;99.90
18225;DHT22;9237;48.590;8.854;2024-03-07T14:09:41;8.10;99.90
18225;DHT22;9237;48.590;8.854;2024-03-07T14:15:56;7.40;99.90
18225;DHT22;9237;48.590;8.854;2024-03-07T14:18:58;7.40;99.90
18225;DHT22;9237;48.590;8.854;2024-03-07T14:22:02;7.60;99.90
18225;DHT22;9237;48.590;8.854;2024-03-07T14:25:03;7.70;99.90
18225;DHT22;9237;48.590;8.854;2024-03-07T14:27:51;7.50;99.90
18225;DHT22;9237;48.590;8.854;2024-03-07T14:30:27;7.30;99.90
18225;DHT22;9237;48.590;8.854;2024-03-07T14:33:08;7.40;99.90
18225;DHT22;9237;48.590;8.854;2024-03-07T14:36:03;7.50;99.90
18225;DHT22;9237;48.590;8.854;2024-03-07T14:38:43;7.50;99.90
18225;DHT22;9237;48.590;8.854;2024-03-07T14:41:14;7.40;99.90
18225;DHT22;9237;48.590;8.854;2024-03-07T14:43:42;7.20;99.90
18225;DHT22;9237;48.590;8.854;2024-03-07T14:46:10;7.10;99.90
18225;DHT22;9237;48.590;8.854;2024-03-07T14:48:39;7.00;99.90
18225;DHT22;9237;48.590;8.854;2024-03-07T14:51:08;6.90;99.90
18225;DHT22;9237;48.590;8.854;2024-03-07T14:53:38;6.90;99.90
18225;DHT22;9237;48.590;8.854;2024-03-07T14:56:06;6.90;99.90
18225;DHT22;9237;48.590;8.854;2024-03-07T14:58:32;6.90;99.90
18225;DHT22;9237;48.590;8.854;2024-03-07T15:00:59;6.90;99.90
18225;DHT22;9237;48.590;8.854;2024-03-07T15:03:27;7.10;99.90
18225;DHT22;9237;48.590;8.854;2024-03-07T15:05:58;7.20;99.90
18225;DHT22;9237;48.590;8.854;2024-03-07T15:08:27;7.30;99.90
18225;DHT22;9237;48.590;8.854;2024-03-07T15:10:57;7.30;99.90
18225;DHT22;9237;48.590;8.854;2024-03-07T15:13:32;7.30;99.90
18225;DHT22;9237;48.590;8.854;2024-03-07T15:16:00;7.50;99.90
18225;DHT22;9237;48.590;8.854;2024-03-07T15:18:28;7.50;99.90
18225;DHT22;9237;48.590;8.854;2024-03-07T15:21:00;7.40;99.90
18225;DHT22;9237;48.590;8.854;2024-03-07T15:23:28;7.50;99.90
18225;DHT22;9237;48.590;8.854;2024-03-07T15:25:55;7.40;99.90
18225;DHT22;9237;48.590;8.854;2024-03-07T15:28:22;7.30;99.90
18225;DHT22;9237;48.590;8.854;2024-03-07T15:30:53;7.20;99.90
18225;DHT22;9237;48.590;8.854;2024-03-07T15:33:20;7.10;99.90
18225;DHT22;9237;48.590;8.854;2024-03-07T15:35:48;7.00;99.90
18225;DHT22;9237;48.590;8.854;2024-03-07T15:38:18;7.00;99.90
18225;DHT22;9237;48.590;8.854;2024-03-07T15:40:45;7.00;99.90
18225;DHT22;9237;48.590;8.854;2024-03-07T15:43:13;6.90;99.90
18225;DHT22;9237;48.590;8.854;2024-03-07T15:45:43;6.70;99.90
18225;DHT22;9237;48.590;8.854;2024-03-07T15:48:10;6.90;99.90
18225;DHT22;9237;48.590;8.854;2024-03-07T15:50:38;6.90;99.90
18225;DHT22;9237;48.590;8.854;2024-03-07T15:53:16;7.00;99.90
18225;DHT22;9237;48.590;8.854;2024-03-07T15:55:45;7.00;99.90
18225;DHT22;9237;48.590;8.854;2024-03-07T15:58:13;6.90;99.90
18225;DHT22;9237;48.590;8.854;2024-03-07T16:00:45;6.80;99.90
18225;DHT22;9237;48.590;8.854;2024-03-07T16:03:13;6.80;99.90
18225;DHT22;9237;48.590;8.854;2024-03-07T16:05:43;6.80;99.90
18225;DHT22;9237;48.590;8.854;2024-03-07T16:08:18;6.80;99.90
18225;DHT22;9237;48.590;8.854;2024-03-07T16:10:52;6.80;99.90
18225;DHT22;9237;48.590;8.854;2024-03-07T16:13:23;6.70;99.90
18225;DHT22;9237;48.590;8.854;2024-03-07T16:15:53;6.80;99.90
18225;DHT22;9237;48.590;8.854;2024-03-07T16:18:22;6.70;99.90